createdAt,value
2023-01-29T00:02:13.442Z,2.64
2023-01-29T00:05:27.468Z,2.52
2023-01-29T00:08:30.710Z,2.60
2023-01-29T00:11:35.807Z,2.53
2023-01-29T00:14:38.460Z,2.39
2023-01-29T00:17:41.040Z,2.49
2023-01-29T00:20:45.210Z,2.52
2023-01-29T00:23:48.640Z,2.47
2023-01-29T00:26:52.673Z,2.53
2023-01-29T00:30:12.914Z,2.62
2023-01-29T00:33:16.195Z,2.50
2023-01-29T00:36:20.617Z,2.52
2023-01-29T00:39:33.671Z,2.49
2023-01-29T00:43:03.279Z,2.50
2023-01-29T00:46:06.586Z,2.49
2023-01-29T00:49:09.785Z,2.41
2023-01-29T00:52:24.429Z,2.36
2023-01-29T00:55:27.078Z,2.43
2023-01-29T00:58:34.326Z,2.39
2023-01-29T01:01:56.018Z,2.37
2023-01-29T01:04:59.049Z,2.36
2023-01-29T01:08:01.696Z,2.39
2023-01-29T01:11:06.407Z,2.25
2023-01-29T01:14:10.398Z,2.39
2023-01-29T01:17:13.181Z,2.36
2023-01-29T01:20:16.179Z,2.34
2023-01-29T01:23:19.668Z,2.42
2023-01-29T01:26:22.331Z,2.42
2023-01-29T01:29:26.381Z,2.49
2023-01-29T01:32:29.013Z,2.43
2023-01-29T01:35:31.628Z,2.38
2023-01-29T01:38:34.273Z,2.47
2023-01-29T01:41:36.976Z,2.41
2023-01-29T01:44:54.646Z,2.47
2023-01-29T01:48:02.410Z,2.41
2023-01-29T01:51:06.513Z,2.36
2023-01-29T01:54:12.864Z,2.27
2023-01-29T01:57:18.644Z,2.23
2023-01-29T02:00:26.107Z,2.25
2023-01-29T02:03:51.872Z,2.41
2023-01-29T02:07:14.709Z,2.39
2023-01-29T02:10:19.341Z,2.30
2023-01-29T02:13:23.366Z,2.17
2023-01-29T02:16:27.693Z,2.38
2023-01-29T02:19:45.538Z,2.33
2023-01-29T02:23:16.898Z,2.39
2023-01-29T02:26:40.970Z,2.42
2023-01-29T02:29:56.945Z,2.37
2023-01-29T02:33:09.304Z,2.37
2023-01-29T02:36:23.077Z,2.27
2023-01-29T02:39:34.149Z,2.33
2023-01-29T02:42:44.533Z,2.34
2023-01-29T02:45:53.252Z,2.33
2023-01-29T02:49:01.948Z,2.22
2023-01-29T02:52:09.798Z,2.22
2023-01-29T02:55:16.294Z,2.11
2023-01-29T02:58:29.181Z,2.20
2023-01-29T03:01:39.912Z,2.16
2023-01-29T03:04:47.591Z,2.12
2023-01-29T03:07:55.957Z,1.96
2023-01-29T03:11:14.352Z,2.10
2023-01-29T03:14:24.174Z,2.17
2023-01-29T03:17:37.337Z,2.17
2023-01-29T03:20:48.198Z,2.18
2023-01-29T03:24:12.930Z,2.16
2023-01-29T03:27:38.928Z,2.21
2023-01-29T03:31:06.419Z,2.16
2023-01-29T03:34:34.652Z,2.24
2023-01-29T03:37:43.687Z,2.18
2023-01-29T03:40:53.073Z,2.20
2023-01-29T03:44:07.142Z,2.14
2023-01-29T03:47:18.036Z,2.04
2023-01-29T03:50:34.409Z,2.11
2023-01-29T03:53:44.129Z,2.12
2023-01-29T03:57:15.517Z,2.16
2023-01-29T04:00:27.857Z,2.23
2023-01-29T04:03:40.091Z,2.15
2023-01-29T04:06:47.656Z,2.14
2023-01-29T04:09:53.738Z,2.08
2023-01-29T04:13:01.930Z,2.09
2023-01-29T04:16:10.613Z,2.23
2023-01-29T04:19:39.734Z,2.10
2023-01-29T04:22:49.558Z,2.10
2023-01-29T04:26:06.883Z,2.24
2023-01-29T04:29:22.031Z,2.09
2023-01-29T04:32:32.555Z,2.06
2023-01-29T04:35:48.627Z,1.96
2023-01-29T04:39:02.787Z,2.05
2023-01-29T04:42:13.576Z,1.96
2023-01-29T04:45:23.181Z,1.92
2023-01-29T04:48:32.250Z,2.02
2023-01-29T04:51:45.174Z,1.89
2023-01-29T04:55:01.488Z,1.84
2023-01-29T04:58:11.581Z,1.87
2023-01-29T05:01:17.635Z,1.79
2023-01-29T05:04:21.777Z,1.79
2023-01-29T05:07:26.530Z,1.75
2023-01-29T05:10:30.900Z,1.73
2023-01-29T05:13:39.397Z,1.66
2023-01-29T05:16:45.649Z,1.72
2023-01-29T05:19:48.955Z,1.72
2023-01-29T05:22:53.845Z,1.60
2023-01-29T05:25:58.185Z,1.64
2023-01-29T05:29:00.916Z,1.70
2023-01-29T05:32:04.103Z,1.57
2023-01-29T05:35:07.571Z,1.66
2023-01-29T05:38:10.471Z,1.54
2023-01-29T05:41:18.051Z,1.51
2023-01-29T05:44:20.679Z,1.57
2023-01-29T05:47:23.431Z,1.64
2023-01-29T05:50:27.202Z,1.59
2023-01-29T05:53:33.358Z,1.50
2023-01-29T05:56:37.297Z,1.57
2023-01-29T05:59:40.047Z,1.68
2023-01-29T06:02:42.919Z,1.80
2023-01-29T06:05:45.647Z,1.84
2023-01-29T06:08:48.601Z,1.83
2023-01-29T06:11:52.682Z,1.84
2023-01-29T06:14:55.621Z,1.79
2023-01-29T06:17:58.280Z,1.76
2023-01-29T06:21:02.603Z,1.78
2023-01-29T06:24:06.047Z,1.75
2023-01-29T06:27:10.035Z,1.67
2023-01-29T06:30:13.693Z,1.74
2023-01-29T06:33:16.369Z,1.93
2023-01-29T06:36:19.121Z,1.82
2023-01-29T06:39:21.810Z,1.95
2023-01-29T06:42:28.091Z,2.03
2023-01-29T06:45:30.966Z,2.09
2023-01-29T06:48:33.941Z,2.09
2023-01-29T06:51:36.622Z,1.97
2023-01-29T06:54:39.311Z,2.06
2023-01-29T06:57:43.328Z,2.22
2023-01-29T07:00:47.161Z,2.24
2023-01-29T07:03:50.901Z,2.36
2023-01-29T07:06:53.665Z,2.30
2023-01-29T07:09:56.298Z,2.39
2023-01-29T07:13:00.704Z,2.43
2023-01-29T07:16:04.857Z,2.45
2023-01-29T07:19:07.589Z,2.58
2023-01-29T07:22:10.223Z,2.71
2023-01-29T07:25:12.984Z,2.70
2023-01-29T07:28:17.375Z,2.82
2023-01-29T07:31:20.287Z,2.83
2023-01-29T07:34:23.073Z,2.77
2023-01-29T07:37:25.707Z,2.82
2023-01-29T07:40:29.096Z,2.77
2023-01-29T07:43:33.516Z,2.71
2023-01-29T07:46:36.403Z,3.07
2023-01-29T07:49:39.152Z,3.11
2023-01-29T07:52:41.746Z,3.30
2023-01-29T07:55:45.409Z,3.12
2023-01-29T07:58:49.536Z,3.18
2023-01-29T08:01:52.304Z,3.32
2023-01-29T08:04:54.961Z,3.21
2023-01-29T08:08:06.632Z,3.20
2023-01-29T08:11:09.935Z,3.30
2023-01-29T08:14:14.021Z,3.18
2023-01-29T08:17:16.791Z,3.18
2023-01-29T08:20:20.978Z,3.20
2023-01-29T08:23:23.890Z,3.12
2023-01-29T08:26:27.395Z,3.29
2023-01-29T08:29:31.654Z,3.30
2023-01-29T08:32:34.434Z,3.52
2023-01-29T08:35:37.374Z,3.30
2023-01-29T08:38:40.228Z,3.33
2023-01-29T08:41:42.865Z,3.26
2023-01-29T08:44:46.909Z,3.41
2023-01-29T08:47:50.217Z,3.33
2023-01-29T08:50:53.013Z,3.44
2023-01-29T08:53:55.835Z,3.52
2023-01-29T08:56:58.595Z,3.41
2023-01-29T09:00:03.887Z,3.21
2023-01-29T09:03:08.048Z,3.40
2023-01-29T09:06:12.618Z,3.38
2023-01-29T09:09:15.567Z,3.41
2023-01-29T09:12:18.241Z,3.27
2023-01-29T09:15:22.801Z,3.26
2023-01-29T09:18:25.550Z,3.23
2023-01-29T09:21:28.398Z,3.29
2023-01-29T09:24:32.633Z,3.22
2023-01-29T09:27:35.329Z,3.42
2023-01-29T09:30:40.322Z,3.61
2023-01-29T09:33:43.218Z,3.57
2023-01-29T09:36:46.327Z,3.69
2023-01-29T09:39:49.189Z,3.55
2023-01-29T09:42:57.806Z,3.47
2023-01-29T09:46:06.403Z,3.37
2023-01-29T09:49:15.656Z,3.30
2023-01-29T09:52:23.678Z,3.10
2023-01-29T09:55:28.732Z,3.17
2023-01-29T09:58:35.793Z,3.29
2023-01-29T10:01:49.860Z,3.33
2023-01-29T10:05:13.254Z,3.34
2023-01-29T10:08:37.033Z,3.31
2023-01-29T10:11:52.676Z,3.34
2023-01-29T10:15:03.380Z,3.24
2023-01-29T10:18:33.837Z,3.18
2023-01-29T10:22:02.179Z,3.15
2023-01-29T10:25:10.393Z,3.23
2023-01-29T10:28:18.551Z,3.16
2023-01-29T10:31:28.097Z,3.10
2023-01-29T10:34:39.014Z,3.28
2023-01-29T10:37:42.813Z,3.30
2023-01-29T10:40:50.538Z,3.44
2023-01-29T10:44:05.155Z,3.47
2023-01-29T10:47:21.324Z,3.65
2023-01-29T10:50:39.400Z,3.67
2023-01-29T10:53:57.442Z,3.57
2023-01-29T10:57:11.231Z,3.56
2023-01-29T11:00:21.583Z,3.58
2023-01-29T11:03:28.641Z,3.59
2023-01-29T11:06:35.074Z,3.50
2023-01-29T11:09:43.950Z,3.42
2023-01-29T11:12:46.684Z,3.53
2023-01-29T11:16:10.016Z,3.48
2023-01-29T11:19:13.342Z,3.48
2023-01-29T11:22:20.108Z,3.64
2023-01-29T11:25:23.138Z,3.60
2023-01-29T11:28:37.262Z,3.69
2023-01-29T11:31:40.359Z,3.69
2023-01-29T11:35:05.154Z,3.57
2023-01-29T11:38:18.950Z,3.50
2023-01-29T11:41:24.329Z,3.46
2023-01-29T11:44:29.588Z,3.46
2023-01-29T11:47:32.770Z,3.47
2023-01-29T11:50:35.735Z,3.63
2023-01-29T11:53:43.424Z,3.48
2023-01-29T11:56:47.956Z,3.54
2023-01-29T11:59:52.509Z,3.35
2023-01-29T12:02:57.896Z,3.38
2023-01-29T12:06:04.532Z,3.38
2023-01-29T12:09:16.852Z,3.48
2023-01-29T12:12:32.223Z,3.49
2023-01-29T12:15:35.340Z,3.38
2023-01-29T12:18:41.684Z,3.24
2023-01-29T12:21:50.953Z,3.36
2023-01-29T12:24:59.392Z,3.17
2023-01-29T12:28:10.984Z,3.23
2023-01-29T12:31:27.473Z,3.24
2023-01-29T12:34:43.427Z,3.26
2023-01-29T12:37:55.575Z,3.29
2023-01-29T12:41:08.003Z,3.49
2023-01-29T12:44:15.763Z,3.39
2023-01-29T12:47:23.491Z,3.35
2023-01-29T12:50:29.251Z,3.36
2023-01-29T12:53:35.180Z,3.29
2023-01-29T12:56:43.600Z,3.23
2023-01-29T12:59:49.885Z,3.37
2023-01-29T13:02:59.724Z,3.54
2023-01-29T13:06:07.319Z,3.38
2023-01-29T13:09:16.938Z,3.38
2023-01-29T13:12:23.186Z,3.23
2023-01-29T13:15:30.213Z,3.33
2023-01-29T13:18:44.200Z,3.17
2023-01-29T13:21:48.244Z,3.42
2023-01-29T13:25:03.644Z,3.29
2023-01-29T13:28:17.073Z,3.32
2023-01-29T13:31:28.930Z,3.34
2023-01-29T13:34:34.920Z,3.21
2023-01-29T13:37:42.691Z,3.02
2023-01-29T13:40:50.203Z,2.99
2023-01-29T13:43:54.391Z,3.23
2023-01-29T13:46:59.427Z,3.21
2023-01-29T13:50:07.686Z,3.19
2023-01-29T13:53:22.675Z,3.03
2023-01-29T13:56:41.654Z,2.86
2023-01-29T13:59:55.287Z,2.85
2023-01-29T14:03:45.033Z,2.93
2023-01-29T14:06:55.349Z,2.93
2023-01-29T14:10:14.389Z,2.94
2023-01-29T14:13:34.135Z,2.85
2023-01-29T14:16:38.700Z,2.71
2023-01-29T14:20:15.444Z,2.68
2023-01-29T14:23:36.019Z,2.50
2023-01-29T14:26:45.641Z,2.44
2023-01-29T14:29:48.600Z,2.42
2023-01-29T14:32:52.786Z,2.45
2023-01-29T14:35:58.183Z,2.48
2023-01-29T14:39:01.403Z,2.55
2023-01-29T14:42:15.412Z,2.62
2023-01-29T14:45:38.219Z,2.67
2023-01-29T14:48:48.686Z,2.61
2023-01-29T14:51:52.213Z,2.50
2023-01-29T14:54:59.692Z,2.49
2023-01-29T14:58:03.721Z,2.40
2023-01-29T15:01:21.038Z,2.35
2023-01-29T15:04:28.186Z,2.32
2023-01-29T15:07:35.671Z,2.29
2023-01-29T15:10:44.930Z,2.28
2023-01-29T15:13:53.727Z,2.27
2023-01-29T15:17:06.267Z,2.35
2023-01-29T15:20:30.281Z,2.33
2023-01-29T15:23:34.321Z,2.28
2023-01-29T15:26:37.047Z,2.34
2023-01-29T15:29:41.743Z,2.26
2023-01-29T15:32:46.040Z,2.23
2023-01-29T15:36:06.692Z,2.14
2023-01-29T15:39:18.900Z,2.14
2023-01-29T15:42:23.530Z,2.05
2023-01-29T15:45:30.954Z,2.04
2023-01-29T15:48:37.670Z,2.01
2023-01-29T15:51:44.055Z,2.03
2023-01-29T15:54:47.748Z,1.99
2023-01-29T15:57:51.078Z,1.91
2023-01-29T16:00:55.719Z,1.97
2023-01-29T16:04:03.315Z,1.99
2023-01-29T16:07:07.670Z,1.91
2023-01-29T16:10:17.994Z,1.80
2023-01-29T16:13:24.331Z,1.84
2023-01-29T16:16:28.150Z,1.81
2023-01-29T16:19:31.059Z,1.87
2023-01-29T16:22:37.570Z,1.74
2023-01-29T16:25:40.920Z,1.71
2023-01-29T16:28:45.260Z,1.74
2023-01-29T16:31:51.596Z,1.79
2023-01-29T16:34:57.533Z,1.75
2023-01-29T16:38:04.929Z,1.60
2023-01-29T16:41:15.565Z,1.51
2023-01-29T16:44:38.392Z,1.56
2023-01-29T16:47:41.694Z,1.64
2023-01-29T16:50:54.659Z,1.66
2023-01-29T16:54:02.362Z,1.62
2023-01-29T16:57:05.363Z,1.63
2023-01-29T17:00:20.065Z,1.68
2023-01-29T17:03:27.524Z,1.65
2023-01-29T17:06:32.661Z,1.68
2023-01-29T17:09:38.462Z,1.67
2023-01-29T17:12:41.528Z,1.69
2023-01-29T17:15:46.749Z,1.61
2023-01-29T17:18:50.274Z,1.59
2023-01-29T17:21:53.083Z,1.62
2023-01-29T17:24:57.625Z,1.56
2023-01-29T17:28:01.765Z,1.54
2023-01-29T17:31:07.008Z,1.43
2023-01-29T17:34:12.793Z,1.35
2023-01-29T17:37:16.449Z,1.25
2023-01-29T17:40:31.724Z,1.23
2023-01-29T17:43:35.124Z,1.24
2023-01-29T17:46:38.149Z,1.37
2023-01-29T17:49:42.127Z,1.36
2023-01-29T17:52:45.419Z,1.27
2023-01-29T17:55:50.514Z,1.34
2023-01-29T17:58:53.300Z,1.24
2023-01-29T18:01:56.765Z,1.26
2023-01-29T18:04:59.941Z,1.20
2023-01-29T18:08:03.094Z,1.11
2023-01-29T18:11:10.850Z,1.07
2023-01-29T18:14:14.735Z,1.02
2023-01-29T18:17:22.294Z,1.02
2023-01-29T18:20:28.160Z,1.07
2023-01-29T18:23:31.404Z,1.07
2023-01-29T18:26:36.183Z,1.01
2023-01-29T18:29:39.222Z,1.06
2023-01-29T18:32:42.096Z,1.07
2023-01-29T18:35:45.197Z,1.07
2023-01-29T18:38:48.613Z,1.13
2023-01-29T18:41:52.939Z,1.05
2023-01-29T18:44:55.981Z,1.10
2023-01-29T18:47:58.798Z,1.19
2023-01-29T18:51:01.639Z,1.26
2023-01-29T18:54:05.201Z,1.17
2023-01-29T18:57:14.429Z,1.09
2023-01-29T19:00:32.784Z,1.10
2023-01-29T19:03:36.352Z,0.99
2023-01-29T19:06:39.360Z,0.88
2023-01-29T19:09:45.611Z,0.93
2023-01-29T19:12:50.353Z,0.80
2023-01-29T19:15:54.198Z,0.61
2023-01-29T19:18:58.568Z,0.44
2023-01-29T19:22:02.405Z,0.32
2023-01-29T19:25:06.802Z,0.26
2023-01-29T19:28:11.514Z,0.12
2023-01-29T19:31:14.889Z,0.08
2023-01-29T19:34:18.312Z,0.04
2023-01-29T19:37:21.498Z,-0.05
2023-01-29T19:40:25.582Z,-0.08
2023-01-29T19:43:33.109Z,-0.15
2023-01-29T19:46:36.633Z,-0.14
2023-01-29T19:49:40.668Z,-0.21
2023-01-29T19:52:52.022Z,-0.23
2023-01-29T19:55:59.769Z,-0.21
2023-01-29T19:59:07.248Z,-0.29
2023-01-29T20:02:10.848Z,-0.32
2023-01-29T20:05:17.242Z,-0.34
2023-01-29T20:08:22.298Z,-0.37
2023-01-29T20:11:25.410Z,-0.45
2023-01-29T20:14:31.056Z,-0.37
2023-01-29T20:17:34.134Z,-0.46
2023-01-29T20:20:39.808Z,-0.55
2023-01-29T20:23:45.677Z,-0.55
2023-01-29T20:26:49.377Z,-0.53
2023-01-29T20:29:53.849Z,-0.54
2023-01-29T20:32:57.104Z,-0.57
2023-01-29T20:36:02.138Z,-0.57
2023-01-29T20:39:04.797Z,-0.54
2023-01-29T20:42:07.503Z,-0.53
2023-01-29T20:45:12.331Z,-0.59
2023-01-29T20:48:15.286Z,-0.48
2023-01-29T20:51:18.903Z,-0.60
2023-01-29T20:54:21.627Z,-0.62
2023-01-29T20:57:24.817Z,-0.63
2023-01-29T21:00:28.878Z,-0.58
2023-01-29T21:03:31.864Z,-0.49
2023-01-29T21:06:34.746Z,-0.45
2023-01-29T21:09:37.798Z,-0.39
2023-01-29T21:12:41.493Z,-0.37
2023-01-29T21:15:45.955Z,-0.24
2023-01-29T21:18:48.627Z,-0.21
2023-01-29T21:21:51.520Z,-0.25
2023-01-29T21:24:54.439Z,-0.10
2023-01-29T21:27:57.910Z,0.02
2023-01-29T21:31:07.271Z,-0.02
2023-01-29T21:34:10.491Z,-0.02
2023-01-29T21:37:13.202Z,0.12
2023-01-29T21:40:16.736Z,0.17
2023-01-29T21:43:19.774Z,0.15
2023-01-29T21:46:23.769Z,0.12
2023-01-29T21:49:26.815Z,0.05
2023-01-29T21:52:29.506Z,0.12
2023-01-29T21:55:32.779Z,0.07
2023-01-29T21:58:35.708Z,0.18
2023-01-29T22:01:39.779Z,0.28
2023-01-29T22:04:42.836Z,0.15
2023-01-29T22:07:45.555Z,0.22
2023-01-29T22:10:48.290Z,0.08
2023-01-29T22:13:51.014Z,0.10
2023-01-29T22:16:55.002Z,0.02
2023-01-29T22:20:07.778Z,-0.11
2023-01-29T22:23:12.539Z,-0.18
2023-01-29T22:26:15.772Z,-0.21
2023-01-29T22:29:19.581Z,-0.38
2023-01-29T22:32:23.658Z,-0.33
2023-01-29T22:35:26.360Z,-0.32
2023-01-29T22:38:29.485Z,-0.40
2023-01-29T22:41:33.709Z,-0.50
2023-01-29T22:44:36.455Z,-0.66
2023-01-29T22:47:40.617Z,-0.66
2023-01-29T22:50:52.976Z,-0.83
2023-01-29T22:53:57.078Z,-0.83
2023-01-29T22:56:59.695Z,-0.93
2023-01-29T23:00:02.738Z,-0.95
2023-01-29T23:03:07.516Z,-1.08
2023-01-29T23:06:10.461Z,-1.19
2023-01-29T23:09:13.075Z,-1.27
2023-01-29T23:12:16.131Z,-1.30
2023-01-29T23:15:18.782Z,-1.35
2023-01-29T23:18:22.736Z,-1.38
2023-01-29T23:21:26.208Z,-1.48
2023-01-29T23:24:28.932Z,-1.51
2023-01-29T23:27:31.537Z,-1.54
2023-01-29T23:30:34.258Z,-1.48
2023-01-29T23:33:38.897Z,-1.58
2023-01-29T23:36:41.841Z,-1.59
2023-01-29T23:39:44.740Z,-1.66
2023-01-29T23:42:48.420Z,-1.67
2023-01-29T23:45:51.151Z,-1.68
2023-01-29T23:48:55.178Z,-1.72
2023-01-29T23:51:57.999Z,-1.76
2023-01-29T23:55:00.733Z,-1.77
2023-01-29T23:58:03.719Z,-1.85
